sensor_id;sensor_type;location;lat;lon;timestamp;P1;durP1;ratioP1;P2;durP2;ratioP2
59938;SDS011;45801;51.810;19.444;2022-07-06T00:00:15;9.60;;;5.90;;
59938;SDS011;45801;51.810;19.444;2022-07-06T00:03:01;11.10;;;6.10;;
59938;SDS011;45801;51.810;19.444;2022-07-06T00:05:28;9.70;;;6.00;;
59938;SDS011;45801;51.810;19.444;2022-07-06T00:07:54;9.00;;;6.40;;
59938;SDS011;45801;51.810;19.444;2022-07-06T00:10:21;9.70;;;6.90;;
59938;SDS011;45801;51.810;19.444;2022-07-06T00:12:48;8.80;;;5.90;;
59938;SDS011;45801;51.810;19.444;2022-07-06T00:15:14;8.90;;;6.10;;
59938;SDS011;45801;51.810;19.444;2022-07-06T00:17:40;10.40;;;6.40;;
59938;SDS011;45801;51.810;19.444;2022-07-06T00:20:07;10.50;;;6.80;;
59938;SDS011;45801;51.810;19.444;2022-07-06T00:22:34;8.70;;;6.30;;
59938;SDS011;45801;51.810;19.444;2022-07-06T00:25:00;8.20;;;6.00;;
59938;SDS011;45801;51.810;19.444;2022-07-06T00:27:27;8.80;;;6.60;;
59938;SDS011;45801;51.810;19.444;2022-07-06T00:29:53;9.10;;;6.30;;
59938;SDS011;45801;51.810;19.444;2022-07-06T00:32:20;9.60;;;6.60;;
59938;SDS011;45801;51.810;19.444;2022-07-06T00:34:46;8.10;;;6.00;;
59938;SDS011;45801;51.810;19.444;2022-07-06T00:37:12;9.00;;;6.50;;
59938;SDS011;45801;51.810;19.444;2022-07-06T00:39:41;9.30;;;6.80;;
59938;SDS011;45801;51.810;19.444;2022-07-06T00:42:07;9.10;;;6.60;;
59938;SDS011;45801;51.810;19.444;2022-07-06T00:44:34;9.40;;;5.90;;
59938;SDS011;45801;51.810;19.444;2022-07-06T00:47:00;9.20;;;6.60;;
59938;SDS011;45801;51.810;19.444;2022-07-06T00:49:27;9.40;;;6.90;;
59938;SDS011;45801;51.810;19.444;2022-07-06T00:52:12;10.10;;;6.90;;
59938;SDS011;45801;51.810;19.444;2022-07-06T00:54:39;10.00;;;7.00;;
59938;SDS011;45801;51.810;19.444;2022-07-06T00:57:07;9.40;;;6.80;;
59938;SDS011;45801;51.810;19.444;2022-07-06T00:59:34;9.20;;;6.80;;
59938;SDS011;45801;51.810;19.444;2022-07-06T01:02:01;8.10;;;6.10;;
59938;SDS011;45801;51.810;19.444;2022-07-06T01:04:28;9.40;;;6.50;;
59938;SDS011;45801;51.810;19.444;2022-07-06T01:06:55;9.20;;;6.50;;
59938;SDS011;45801;51.810;19.444;2022-07-06T01:09:23;9.60;;;6.60;;
59938;SDS011;45801;51.810;19.444;2022-07-06T01:11:49;10.10;;;6.90;;
59938;SDS011;45801;51.810;19.444;2022-07-06T01:14:18;9.80;;;6.70;;
59938;SDS011;45801;51.810;19.444;2022-07-06T01:16:46;11.10;;;6.70;;
59938;SDS011;45801;51.810;19.444;2022-07-06T01:19:13;8.70;;;4.60;;
59938;SDS011;45801;51.810;19.444;2022-07-06T01:21:40;9.20;;;7.00;;
59938;SDS011;45801;51.810;19.444;2022-07-06T01:24:07;10.90;;;6.80;;
59938;SDS011;45801;51.810;19.444;2022-07-06T01:26:33;9.60;;;6.50;;
59938;SDS011;45801;51.810;19.444;2022-07-06T01:29:00;9.60;;;6.80;;
59938;SDS011;45801;51.810;19.444;2022-07-06T01:31:27;9.60;;;6.80;;
59938;SDS011;45801;51.810;19.444;2022-07-06T01:33:55;9.50;;;7.00;;
59938;SDS011;45801;51.810;19.444;2022-07-06T01:36:23;9.70;;;6.90;;
59938;SDS011;45801;51.810;19.444;2022-07-06T01:38:54;8.80;;;7.00;;
59938;SDS011;45801;51.810;19.444;2022-07-06T01:41:25;11.00;;;7.10;;
59938;SDS011;45801;51.810;19.444;2022-07-06T01:43:51;9.40;;;7.80;;
59938;SDS011;45801;51.810;19.444;2022-07-06T01:46:18;9.90;;;6.70;;
59938;SDS011;45801;51.810;19.444;2022-07-06T01:48:45;10.90;;;6.80;;
59938;SDS011;45801;51.810;19.444;2022-07-06T01:51:12;11.30;;;7.60;;
59938;SDS011;45801;51.810;19.444;2022-07-06T01:53:38;10.10;;;6.40;;
59938;SDS011;45801;51.810;19.444;2022-07-06T01:56:05;10.20;;;7.30;;
59938;SDS011;45801;51.810;19.444;2022-07-06T01:58:32;9.40;;;6.40;;
59938;SDS011;45801;51.810;19.444;2022-07-06T02:00:58;10.20;;;7.70;;
59938;SDS011;45801;51.810;19.444;2022-07-06T02:03:25;11.00;;;7.40;;
59938;SDS011;45801;51.810;19.444;2022-07-06T02:05:51;9.10;;;7.10;;
59938;SDS011;45801;51.810;19.444;2022-07-06T02:08:18;8.70;;;7.10;;
59938;SDS011;45801;51.810;19.444;2022-07-06T02:10:44;11.40;;;6.90;;
59938;SDS011;45801;51.810;19.444;2022-07-06T02:13:11;9.50;;;7.30;;
59938;SDS011;45801;51.810;19.444;2022-07-06T02:15:37;9.80;;;7.20;;
59938;SDS011;45801;51.810;19.444;2022-07-06T02:18:04;10.10;;;6.90;;
59938;SDS011;45801;51.810;19.444;2022-07-06T02:20:30;10.70;;;6.80;;
59938;SDS011;45801;51.810;19.444;2022-07-06T02:22:56;8.90;;;7.20;;
59938;SDS011;45801;51.810;19.444;2022-07-06T02:25:23;9.40;;;6.00;;
59938;SDS011;45801;51.810;19.444;2022-07-06T02:27:49;9.00;;;7.20;;
59938;SDS011;45801;51.810;19.444;2022-07-06T02:30:17;10.70;;;8.00;;
59938;SDS011;45801;51.810;19.444;2022-07-06T02:32:44;10.30;;;7.60;;
59938;SDS011;45801;51.810;19.444;2022-07-06T02:35:10;11.10;;;7.50;;
59938;SDS011;45801;51.810;19.444;2022-07-06T02:37:38;12.60;;;7.60;;
59938;SDS011;45801;51.810;19.444;2022-07-06T02:40:06;9.60;;;7.50;;
59938;SDS011;45801;51.810;19.444;2022-07-06T02:42:33;10.20;;;8.20;;
59938;SDS011;45801;51.810;19.444;2022-07-06T02:44:59;9.50;;;7.40;;
59938;SDS011;45801;51.810;19.444;2022-07-06T02:47:26;9.80;;;7.80;;
59938;SDS011;45801;51.810;19.444;2022-07-06T02:49:52;10.60;;;7.70;;
59938;SDS011;45801;51.810;19.444;2022-07-06T02:52:19;11.30;;;7.70;;
59938;SDS011;45801;51.810;19.444;2022-07-06T02:54:46;11.60;;;7.80;;
59938;SDS011;45801;51.810;19.444;2022-07-06T02:57:12;11.50;;;8.60;;
59938;SDS011;45801;51.810;19.444;2022-07-06T02:59:39;11.40;;;8.20;;
59938;SDS011;45801;51.810;19.444;2022-07-06T03:02:05;10.70;;;8.10;;
59938;SDS011;45801;51.810;19.444;2022-07-06T03:04:31;11.00;;;7.30;;
59938;SDS011;45801;51.810;19.444;2022-07-06T03:06:58;10.00;;;7.90;;
59938;SDS011;45801;51.810;19.444;2022-07-06T03:09:26;10.60;;;7.70;;
59938;SDS011;45801;51.810;19.444;2022-07-06T03:11:52;10.60;;;7.60;;
59938;SDS011;45801;51.810;19.444;2022-07-06T03:14:19;11.80;;;8.50;;
59938;SDS011;45801;51.810;19.444;2022-07-06T03:16:45;11.20;;;8.60;;
59938;SDS011;45801;51.810;19.444;2022-07-06T03:19:12;11.90;;;8.70;;
59938;SDS011;45801;51.810;19.444;2022-07-06T03:21:38;13.20;;;9.40;;
59938;SDS011;45801;51.810;19.444;2022-07-06T03:24:05;11.60;;;8.90;;
59938;SDS011;45801;51.810;19.444;2022-07-06T03:26:31;11.50;;;8.90;;
59938;SDS011;45801;51.810;19.444;2022-07-06T03:28:58;11.80;;;9.10;;
59938;SDS011;45801;51.810;19.444;2022-07-06T03:31:24;11.70;;;8.70;;
59938;SDS011;45801;51.810;19.444;2022-07-06T03:33:51;16.10;;;10.60;;
59938;SDS011;45801;51.810;19.444;2022-07-06T03:36:18;13.40;;;9.30;;
59938;SDS011;45801;51.810;19.444;2022-07-06T03:38:44;12.70;;;9.20;;
59938;SDS011;45801;51.810;19.444;2022-07-06T03:41:10;13.80;;;8.50;;
59938;SDS011;45801;51.810;19.444;2022-07-06T03:43:37;12.20;;;8.20;;
59938;SDS011;45801;51.810;19.444;2022-07-06T03:46:04;12.80;;;9.30;;
59938;SDS011;45801;51.810;19.444;2022-07-06T03:48:30;11.90;;;8.20;;
59938;SDS011;45801;51.810;19.444;2022-07-06T03:50:57;15.60;;;8.50;;
59938;SDS011;45801;51.810;19.444;2022-07-06T03:53:23;12.70;;;7.10;;
59938;SDS011;45801;51.810;19.444;2022-07-06T03:55:50;11.00;;;7.20;;
59938;SDS011;45801;51.810;19.444;2022-07-06T03:58:35;13.90;;;7.70;;
59938;SDS011;45801;51.810;19.444;2022-07-06T04:01:01;11.70;;;8.20;;
59938;SDS011;45801;51.810;19.444;2022-07-06T04:03:28;10.90;;;7.70;;
59938;SDS011;45801;51.810;19.444;2022-07-06T04:05:54;10.70;;;7.40;;
59938;SDS011;45801;51.810;19.444;2022-07-06T04:08:21;8.70;;;6.30;;
59938;SDS011;45801;51.810;19.444;2022-07-06T04:10:47;9.50;;;6.60;;
59938;SDS011;45801;51.810;19.444;2022-07-06T04:13:14;10.50;;;5.80;;
59938;SDS011;45801;51.810;19.444;2022-07-06T04:15:40;11.10;;;5.80;;
59938;SDS011;45801;51.810;19.444;2022-07-06T04:18:07;9.70;;;4.90;;
59938;SDS011;45801;51.810;19.444;2022-07-06T04:20:33;9.20;;;5.30;;
59938;SDS011;45801;51.810;19.444;2022-07-06T04:23:00;13.20;;;5.60;;
59938;SDS011;45801;51.810;19.444;2022-07-06T04:25:26;10.60;;;5.20;;
59938;SDS011;45801;51.810;19.444;2022-07-06T04:27:53;9.50;;;5.10;;
59938;SDS011;45801;51.810;19.444;2022-07-06T04:30:20;10.70;;;5.00;;
59938;SDS011;45801;51.810;19.444;2022-07-06T04:32:46;9.50;;;4.60;;
59938;SDS011;45801;51.810;19.444;2022-07-06T04:35:13;10.70;;;5.00;;
59938;SDS011;45801;51.810;19.444;2022-07-06T04:37:39;10.60;;;4.90;;
59938;SDS011;45801;51.810;19.444;2022-07-06T04:40:06;7.90;;;4.40;;
59938;SDS011;45801;51.810;19.444;2022-07-06T04:42:33;10.80;;;4.70;;
59938;SDS011;45801;51.810;19.444;2022-07-06T04:44:59;8.20;;;4.30;;
59938;SDS011;45801;51.810;19.444;2022-07-06T04:47:25;11.10;;;3.80;;
59938;SDS011;45801;51.810;19.444;2022-07-06T04:49:52;8.70;;;3.90;;
59938;SDS011;45801;51.810;19.444;2022-07-06T04:52:19;9.20;;;3.30;;
59938;SDS011;45801;51.810;19.444;2022-07-06T04:54:45;8.10;;;3.30;;
59938;SDS011;45801;51.810;19.444;2022-07-06T04:57:12;7.90;;;3.00;;
59938;SDS011;45801;51.810;19.444;2022-07-06T04:59:39;6.60;;;3.10;;
59938;SDS011;45801;51.810;19.444;2022-07-06T05:02:05;8.70;;;3.40;;
59938;SDS011;45801;51.810;19.444;2022-07-06T05:04:32;9.40;;;3.40;;
59938;SDS011;45801;51.810;19.444;2022-07-06T05:06:59;6.40;;;2.50;;
59938;SDS011;45801;51.810;19.444;2022-07-06T05:09:26;6.50;;;2.90;;
59938;SDS011;45801;51.810;19.444;2022-07-06T05:11:53;9.90;;;3.40;;
59938;SDS011;45801;51.810;19.444;2022-07-06T05:14:19;8.00;;;3.00;;
59938;SDS011;45801;51.810;19.444;2022-07-06T05:16:45;8.90;;;2.80;;
59938;SDS011;45801;51.810;19.444;2022-07-06T05:19:12;6.60;;;2.70;;
59938;SDS011;45801;51.810;19.444;2022-07-06T05:21:38;8.20;;;2.70;;
59938;SDS011;45801;51.810;19.444;2022-07-06T05:24:05;8.00;;;2.20;;
59938;SDS011;45801;51.810;19.444;2022-07-06T05:26:31;6.50;;;2.30;;
59938;SDS011;45801;51.810;19.444;2022-07-06T05:28:58;6.30;;;2.10;;
59938;SDS011;45801;51.810;19.444;2022-07-06T05:31:25;6.00;;;2.10;;
59938;SDS011;45801;51.810;19.444;2022-07-06T05:33:51;5.80;;;2.00;;
59938;SDS011;45801;51.810;19.444;2022-07-06T05:36:18;6.10;;;1.90;;
59938;SDS011;45801;51.810;19.444;2022-07-06T05:38:44;6.50;;;2.00;;
59938;SDS011;45801;51.810;19.444;2022-07-06T05:41:10;4.80;;;1.70;;
59938;SDS011;45801;51.810;19.444;2022-07-06T05:43:37;5.80;;;2.20;;
59938;SDS011;45801;51.810;19.444;2022-07-06T05:46:04;5.40;;;1.90;;
59938;SDS011;45801;51.810;19.444;2022-07-06T05:48:31;4.90;;;1.80;;
59938;SDS011;45801;51.810;19.444;2022-07-06T05:51:16;5.20;;;1.60;;
59938;SDS011;45801;51.810;19.444;2022-07-06T05:53:42;6.60;;;2.00;;
59938;SDS011;45801;51.810;19.444;2022-07-06T05:56:09;5.20;;;1.80;;
59938;SDS011;45801;51.810;19.444;2022-07-06T05:58:35;5.30;;;1.60;;
59938;SDS011;45801;51.810;19.444;2022-07-06T06:01:02;7.40;;;2.00;;
59938;SDS011;45801;51.810;19.444;2022-07-06T06:03:28;4.20;;;1.70;;
59938;SDS011;45801;51.810;19.444;2022-07-06T06:05:54;4.20;;;1.70;;
59938;SDS011;45801;51.810;19.444;2022-07-06T06:08:21;6.40;;;1.90;;
59938;SDS011;45801;51.810;19.444;2022-07-06T06:10:47;6.40;;;2.00;;
59938;SDS011;45801;51.810;19.444;2022-07-06T06:13:14;4.40;;;1.60;;
59938;SDS011;45801;51.810;19.444;2022-07-06T06:15:41;5.80;;;1.80;;
59938;SDS011;45801;51.810;19.444;2022-07-06T06:18:07;5.10;;;1.70;;
59938;SDS011;45801;51.810;19.444;2022-07-06T06:20:34;5.20;;;1.60;;
59938;SDS011;45801;51.810;19.444;2022-07-06T06:23:00;4.60;;;1.40;;
59938;SDS011;45801;51.810;19.444;2022-07-06T06:25:28;4.30;;;1.60;;
59938;SDS011;45801;51.810;19.444;2022-07-06T06:28:02;4.40;;;1.30;;
59938;SDS011;45801;51.810;19.444;2022-07-06T06:30:33;5.10;;;1.70;;
59938;SDS011;45801;51.810;19.444;2022-07-06T06:33:18;4.40;;;1.50;;
59938;SDS011;45801;51.810;19.444;2022-07-06T06:35:55;5.30;;;1.60;;
59938;SDS011;45801;51.810;19.444;2022-07-06T06:38:22;4.80;;;2.00;;
59938;SDS011;45801;51.810;19.444;2022-07-06T06:40:52;6.30;;;1.90;;
59938;SDS011;45801;51.810;19.444;2022-07-06T06:43:19;4.10;;;1.80;;
59938;SDS011;45801;51.810;19.444;2022-07-06T06:45:45;4.30;;;1.70;;
59938;SDS011;45801;51.810;19.444;2022-07-06T06:48:12;5.10;;;1.40;;
59938;SDS011;45801;51.810;19.444;2022-07-06T06:50:39;6.20;;;1.60;;
59938;SDS011;45801;51.810;19.444;2022-07-06T06:53:05;4.50;;;1.50;;
59938;SDS011;45801;51.810;19.444;2022-07-06T06:55:32;4.40;;;1.40;;
59938;SDS011;45801;51.810;19.444;2022-07-06T06:57:58;5.30;;;1.50;;
59938;SDS011;45801;51.810;19.444;2022-07-06T07:00:25;4.60;;;1.60;;
59938;SDS011;45801;51.810;19.444;2022-07-06T07:02:53;5.00;;;1.70;;
59938;SDS011;45801;51.810;19.444;2022-07-06T07:05:20;5.50;;;1.70;;
59938;SDS011;45801;51.810;19.444;2022-07-06T07:07:46;5.00;;;1.80;;
59938;SDS011;45801;51.810;19.444;2022-07-06T07:10:13;5.00;;;1.50;;
59938;SDS011;45801;51.810;19.444;2022-07-06T07:12:45;4.30;;;1.70;;
59938;SDS011;45801;51.810;19.444;2022-07-06T07:15:13;5.50;;;1.70;;
59938;SDS011;45801;51.810;19.444;2022-07-06T07:17:40;6.00;;;1.80;;
59938;SDS011;45801;51.810;19.444;2022-07-06T07:20:07;5.20;;;1.60;;
59938;SDS011;45801;51.810;19.444;2022-07-06T07:22:35;7.60;;;1.80;;
59938;SDS011;45801;51.810;19.444;2022-07-06T07:25:02;3.30;;;1.40;;
59938;SDS011;45801;51.810;19.444;2022-07-06T07:27:29;5.90;;;1.80;;
59938;SDS011;45801;51.810;19.444;2022-07-06T07:29:55;6.90;;;1.60;;
59938;SDS011;45801;51.810;19.444;2022-07-06T07:32:22;4.70;;;1.60;;
59938;SDS011;45801;51.810;19.444;2022-07-06T07:34:48;4.60;;;1.80;;
59938;SDS011;45801;51.810;19.444;2022-07-06T07:37:15;6.00;;;1.70;;
59938;SDS011;45801;51.810;19.444;2022-07-06T07:39:41;5.40;;;1.80;;
59938;SDS011;45801;51.810;19.444;2022-07-06T07:42:08;6.00;;;2.00;;
59938;SDS011;45801;51.810;19.444;2022-07-06T07:44:35;4.30;;;1.60;;
59938;SDS011;45801;51.810;19.444;2022-07-06T07:47:01;5.20;;;1.80;;
59938;SDS011;45801;51.810;19.444;2022-07-06T07:49:27;4.70;;;1.80;;
59938;SDS011;45801;51.810;19.444;2022-07-06T07:51:54;4.70;;;1.90;;
59938;SDS011;45801;51.810;19.444;2022-07-06T07:54:21;3.80;;;1.50;;
59938;SDS011;45801;51.810;19.444;2022-07-06T07:56:47;4.70;;;1.90;;
59938;SDS011;45801;51.810;19.444;2022-07-06T07:59:14;6.40;;;1.80;;
59938;SDS011;45801;51.810;19.444;2022-07-06T08:01:40;5.50;;;1.70;;
59938;SDS011;45801;51.810;19.444;2022-07-06T08:04:07;3.90;;;1.70;;
59938;SDS011;45801;51.810;19.444;2022-07-06T08:06:33;4.40;;;1.40;;
59938;SDS011;45801;51.810;19.444;2022-07-06T08:09:00;4.50;;;1.70;;
59938;SDS011;45801;51.810;19.444;2022-07-06T08:11:26;6.00;;;1.70;;
59938;SDS011;45801;51.810;19.444;2022-07-06T08:13:53;3.30;;;1.20;;
59938;SDS011;45801;51.810;19.444;2022-07-06T08:16:19;5.70;;;1.70;;
59938;SDS011;45801;51.810;19.444;2022-07-06T08:18:46;4.40;;;1.20;;
59938;SDS011;45801;51.810;19.444;2022-07-06T08:21:13;4.30;;;1.20;;
59938;SDS011;45801;51.810;19.444;2022-07-06T08:23:39;4.90;;;1.30;;
59938;SDS011;45801;51.810;19.444;2022-07-06T08:26:06;4.20;;;1.30;;
59938;SDS011;45801;51.810;19.444;2022-07-06T08:28:32;5.00;;;1.30;;
59938;SDS011;45801;51.810;19.444;2022-07-06T08:30:59;4.30;;;1.30;;
59938;SDS011;45801;51.810;19.444;2022-07-06T08:33:25;4.50;;;1.20;;
59938;SDS011;45801;51.810;19.444;2022-07-06T08:35:52;3.60;;;1.30;;
59938;SDS011;45801;51.810;19.444;2022-07-06T08:38:18;3.20;;;1.40;;
59938;SDS011;45801;51.810;19.444;2022-07-06T08:40:46;3.60;;;1.50;;
59938;SDS011;45801;51.810;19.444;2022-07-06T08:43:15;5.90;;;1.60;;
59938;SDS011;45801;51.810;19.444;2022-07-06T08:45:42;4.30;;;1.40;;
59938;SDS011;45801;51.810;19.444;2022-07-06T08:48:11;4.90;;;1.40;;
59938;SDS011;45801;51.810;19.444;2022-07-06T08:50:38;4.70;;;1.50;;
59938;SDS011;45801;51.810;19.444;2022-07-06T08:53:04;3.80;;;1.30;;
59938;SDS011;45801;51.810;19.444;2022-07-06T08:55:31;5.20;;;1.50;;
59938;SDS011;45801;51.810;19.444;2022-07-06T08:57:59;3.90;;;1.20;;
59938;SDS011;45801;51.810;19.444;2022-07-06T09:00:25;3.70;;;1.20;;
59938;SDS011;45801;51.810;19.444;2022-07-06T09:02:52;5.00;;;1.50;;
59938;SDS011;45801;51.810;19.444;2022-07-06T09:05:22;4.60;;;1.50;;
59938;SDS011;45801;51.810;19.444;2022-07-06T09:07:50;4.00;;;1.60;;
59938;SDS011;45801;51.810;19.444;2022-07-06T09:10:18;4.50;;;1.60;;
59938;SDS011;45801;51.810;19.444;2022-07-06T09:12:47;5.20;;;1.80;;
59938;SDS011;45801;51.810;19.444;2022-07-06T09:15:15;3.90;;;1.40;;
59938;SDS011;45801;51.810;19.444;2022-07-06T09:17:42;4.90;;;1.70;;
59938;SDS011;45801;51.810;19.444;2022-07-06T09:20:12;5.50;;;1.90;;
59938;SDS011;45801;51.810;19.444;2022-07-06T09:22:40;7.70;;;1.50;;
59938;SDS011;45801;51.810;19.444;2022-07-06T09:25:11;4.60;;;1.30;;
59938;SDS011;45801;51.810;19.444;2022-07-06T09:27:39;5.50;;;1.50;;
59938;SDS011;45801;51.810;19.444;2022-07-06T09:30:08;5.10;;;1.70;;
59938;SDS011;45801;51.810;19.444;2022-07-06T09:32:40;4.30;;;1.30;;
59938;SDS011;45801;51.810;19.444;2022-07-06T09:35:31;3.80;;;1.20;;
59938;SDS011;45801;51.810;19.444;2022-07-06T09:38:14;3.40;;;1.40;;
59938;SDS011;45801;51.810;19.444;2022-07-06T09:40:42;3.60;;;1.20;;
59938;SDS011;45801;51.810;19.444;2022-07-06T09:43:11;4.20;;;1.20;;
59938;SDS011;45801;51.810;19.444;2022-07-06T09:45:46;3.50;;;1.10;;
59938;SDS011;45801;51.810;19.444;2022-07-06T09:48:16;4.80;;;1.20;;
59938;SDS011;45801;51.810;19.444;2022-07-06T09:50:48;4.40;;;1.20;;
59938;SDS011;45801;51.810;19.444;2022-07-06T09:53:22;2.90;;;1.10;;
59938;SDS011;45801;51.810;19.444;2022-07-06T09:55:53;4.30;;;1.20;;
59938;SDS011;45801;51.810;19.444;2022-07-06T09:58:21;5.20;;;1.30;;
59938;SDS011;45801;51.810;19.444;2022-07-06T10:00:49;2.90;;;1.40;;
59938;SDS011;45801;51.810;19.444;2022-07-06T10:03:17;3.50;;;1.00;;
59938;SDS011;45801;51.810;19.444;2022-07-06T10:05:45;5.10;;;1.30;;
59938;SDS011;45801;51.810;19.444;2022-07-06T10:08:14;4.80;;;1.10;;
59938;SDS011;45801;51.810;19.444;2022-07-06T10:10:43;5.50;;;1.10;;
59938;SDS011;45801;51.810;19.444;2022-07-06T10:13:10;4.70;;;1.00;;
59938;SDS011;45801;51.810;19.444;2022-07-06T10:15:39;3.50;;;1.00;;
59938;SDS011;45801;51.810;19.444;2022-07-06T10:18:07;5.40;;;1.10;;
59938;SDS011;45801;51.810;19.444;2022-07-06T10:20:36;4.50;;;1.10;;
59938;SDS011;45801;51.810;19.444;2022-07-06T10:23:05;3.10;;;0.80;;
59938;SDS011;45801;51.810;19.444;2022-07-06T10:25:34;5.50;;;1.00;;
59938;SDS011;45801;51.810;19.444;2022-07-06T10:28:01;4.10;;;1.00;;
59938;SDS011;45801;51.810;19.444;2022-07-06T10:30:28;3.40;;;0.90;;
59938;SDS011;45801;51.810;19.444;2022-07-06T10:32:56;3.90;;;1.40;;
59938;SDS011;45801;51.810;19.444;2022-07-06T10:35:25;4.30;;;1.10;;
59938;SDS011;45801;51.810;19.444;2022-07-06T10:38:08;4.30;;;0.90;;
59938;SDS011;45801;51.810;19.444;2022-07-06T10:40:41;5.10;;;0.80;;
59938;SDS011;45801;51.810;19.444;2022-07-06T10:46:11;2.70;;;0.80;;
59938;SDS011;45801;51.810;19.444;2022-07-06T10:48:40;2.50;;;0.80;;
59938;SDS011;45801;51.810;19.444;2022-07-06T10:51:09;3.80;;;0.90;;
59938;SDS011;45801;51.810;19.444;2022-07-06T10:53:38;3.90;;;0.80;;
59938;SDS011;45801;51.810;19.444;2022-07-06T10:56:07;3.50;;;0.90;;
59938;SDS011;45801;51.810;19.444;2022-07-06T10:58:39;3.80;;;0.90;;
59938;SDS011;45801;51.810;19.444;2022-07-06T11:01:07;2.90;;;0.90;;
59938;SDS011;45801;51.810;19.444;2022-07-06T11:06:08;2.60;;;0.80;;
59938;SDS011;45801;51.810;19.444;2022-07-06T11:16:28;3.30;;;0.80;;
59938;SDS011;45801;51.810;19.444;2022-07-06T11:19:04;4.90;;;1.20;;
59938;SDS011;45801;51.810;19.444;2022-07-06T11:24:01;3.40;;;1.10;;
59938;SDS011;45801;51.810;19.444;2022-07-06T11:26:29;3.30;;;1.10;;
59938;SDS011;45801;51.810;19.444;2022-07-06T11:28:58;4.80;;;0.90;;
59938;SDS011;45801;51.810;19.444;2022-07-06T11:31:28;3.50;;;1.20;;
59938;SDS011;45801;51.810;19.444;2022-07-06T11:33:54;4.10;;;1.30;;
59938;SDS011;45801;51.810;19.444;2022-07-06T11:36:21;4.90;;;1.10;;
59938;SDS011;45801;51.810;19.444;2022-07-06T11:38:50;3.80;;;1.10;;
59938;SDS011;45801;51.810;19.444;2022-07-06T11:41:17;4.70;;;1.10;;
59938;SDS011;45801;51.810;19.444;2022-07-06T11:43:45;7.50;;;1.20;;
59938;SDS011;45801;51.810;19.444;2022-07-06T11:48:46;3.30;;;1.00;;
59938;SDS011;45801;51.810;19.444;2022-07-06T11:51:14;4.80;;;1.10;;
59938;SDS011;45801;51.810;19.444;2022-07-06T11:53:48;3.60;;;1.00;;
59938;SDS011;45801;51.810;19.444;2022-07-06T11:56:18;3.80;;;1.00;;
59938;SDS011;45801;51.810;19.444;2022-07-06T11:58:50;6.60;;;1.40;;
59938;SDS011;45801;51.810;19.444;2022-07-06T12:01:20;6.20;;;1.20;;
59938;SDS011;45801;51.810;19.444;2022-07-06T12:03:49;2.90;;;1.20;;
59938;SDS011;45801;51.810;19.444;2022-07-06T12:06:18;3.20;;;1.00;;
59938;SDS011;45801;51.810;19.444;2022-07-06T12:08:50;5.00;;;1.20;;
59938;SDS011;45801;51.810;19.444;2022-07-06T12:11:20;5.10;;;1.10;;
59938;SDS011;45801;51.810;19.444;2022-07-06T12:13:49;4.70;;;1.30;;
59938;SDS011;45801;51.810;19.444;2022-07-06T12:16:17;4.40;;;1.00;;
59938;SDS011;45801;51.810;19.444;2022-07-06T12:18:45;6.00;;;1.40;;
59938;SDS011;45801;51.810;19.444;2022-07-06T12:21:14;5.20;;;1.30;;
59938;SDS011;45801;51.810;19.444;2022-07-06T12:23:44;3.50;;;0.80;;
59938;SDS011;45801;51.810;19.444;2022-07-06T12:26:18;5.00;;;1.20;;
59938;SDS011;45801;51.810;19.444;2022-07-06T12:28:46;7.90;;;1.60;;
59938;SDS011;45801;51.810;19.444;2022-07-06T12:31:58;4.50;;;1.00;;
59938;SDS011;45801;51.810;19.444;2022-07-06T12:34:20;4.80;;;1.20;;
59938;SDS011;45801;51.810;19.444;2022-07-06T12:36:49;5.20;;;1.20;;
59938;SDS011;45801;51.810;19.444;2022-07-06T12:39:20;4.50;;;1.20;;
59938;SDS011;45801;51.810;19.444;2022-07-06T12:44:18;4.10;;;1.20;;
59938;SDS011;45801;51.810;19.444;2022-07-06T12:47:11;5.50;;;1.60;;
59938;SDS011;45801;51.810;19.444;2022-07-06T12:49:36;6.70;;;1.50;;
59938;SDS011;45801;51.810;19.444;2022-07-06T12:57:15;7.70;;;1.70;;
59938;SDS011;45801;51.810;19.444;2022-07-06T12:59:46;6.20;;;1.90;;
59938;SDS011;45801;51.810;19.444;2022-07-06T13:02:25;7.00;;;1.70;;
59938;SDS011;45801;51.810;19.444;2022-07-06T13:05:05;6.10;;;1.70;;
59938;SDS011;45801;51.810;19.444;2022-07-06T13:07:44;10.20;;;2.10;;
59938;SDS011;45801;51.810;19.444;2022-07-06T13:10:13;5.20;;;1.50;;
59938;SDS011;45801;51.810;19.444;2022-07-06T13:12:40;6.70;;;1.70;;
59938;SDS011;45801;51.810;19.444;2022-07-06T13:15:07;3.80;;;1.30;;
59938;SDS011;45801;51.810;19.444;2022-07-06T13:17:36;3.80;;;1.50;;
59938;SDS011;45801;51.810;19.444;2022-07-06T13:20:06;5.50;;;1.50;;
59938;SDS011;45801;51.810;19.444;2022-07-06T13:22:34;7.30;;;1.90;;
59938;SDS011;45801;51.810;19.444;2022-07-06T13:25:00;3.20;;;1.30;;
59938;SDS011;45801;51.810;19.444;2022-07-06T13:27:28;5.60;;;1.90;;
59938;SDS011;45801;51.810;19.444;2022-07-06T13:29:54;5.80;;;1.80;;
59938;SDS011;45801;51.810;19.444;2022-07-06T13:32:21;4.70;;;1.60;;
59938;SDS011;45801;51.810;19.444;2022-07-06T13:34:48;6.80;;;1.70;;
59938;SDS011;45801;51.810;19.444;2022-07-06T13:37:14;4.80;;;1.50;;
59938;SDS011;45801;51.810;19.444;2022-07-06T13:39:41;4.80;;;1.90;;
59938;SDS011;45801;51.810;19.444;2022-07-06T13:42:07;3.70;;;1.60;;
59938;SDS011;45801;51.810;19.444;2022-07-06T13:44:35;6.70;;;1.60;;
59938;SDS011;45801;51.810;19.444;2022-07-06T13:47:03;5.70;;;1.90;;
59938;SDS011;45801;51.810;19.444;2022-07-06T13:49:31;2.40;;;1.00;;
59938;SDS011;45801;51.810;19.444;2022-07-06T13:51:57;5.30;;;1.40;;
59938;SDS011;45801;51.810;19.444;2022-07-06T13:54:29;5.50;;;1.30;;
59938;SDS011;45801;51.810;19.444;2022-07-06T13:56:56;4.70;;;1.20;;
59938;SDS011;45801;51.810;19.444;2022-07-06T13:59:22;4.30;;;1.40;;
59938;SDS011;45801;51.810;19.444;2022-07-06T14:01:49;3.20;;;1.10;;
59938;SDS011;45801;51.810;19.444;2022-07-06T14:04:15;4.10;;;1.30;;
59938;SDS011;45801;51.810;19.444;2022-07-06T14:06:42;4.70;;;1.30;;
59938;SDS011;45801;51.810;19.444;2022-07-06T14:09:10;4.40;;;1.10;;
59938;SDS011;45801;51.810;19.444;2022-07-06T14:11:36;3.40;;;1.30;;
59938;SDS011;45801;51.810;19.444;2022-07-06T14:14:02;6.10;;;1.30;;
59938;SDS011;45801;51.810;19.444;2022-07-06T14:16:29;4.80;;;1.10;;
59938;SDS011;45801;51.810;19.444;2022-07-06T14:18:56;4.70;;;1.20;;
59938;SDS011;45801;51.810;19.444;2022-07-06T14:21:22;5.40;;;1.50;;
59938;SDS011;45801;51.810;19.444;2022-07-06T14:23:48;2.50;;;1.10;;
59938;SDS011;45801;51.810;19.444;2022-07-06T14:26:15;3.00;;;1.10;;
59938;SDS011;45801;51.810;19.444;2022-07-06T14:28:41;3.00;;;1.00;;
59938;SDS011;45801;51.810;19.444;2022-07-06T14:31:08;3.20;;;1.20;;
59938;SDS011;45801;51.810;19.444;2022-07-06T14:33:34;3.40;;;1.00;;
59938;SDS011;45801;51.810;19.444;2022-07-06T14:36:01;5.10;;;1.20;;
59938;SDS011;45801;51.810;19.444;2022-07-06T14:38:27;3.70;;;1.40;;
59938;SDS011;45801;51.810;19.444;2022-07-06T14:40:54;4.10;;;1.20;;
59938;SDS011;45801;51.810;19.444;2022-07-06T14:43:20;3.30;;;1.10;;
59938;SDS011;45801;51.810;19.444;2022-07-06T14:45:47;3.30;;;1.20;;
59938;SDS011;45801;51.810;19.444;2022-07-06T14:48:13;5.00;;;1.30;;
59938;SDS011;45801;51.810;19.444;2022-07-06T14:50:40;3.40;;;1.10;;
59938;SDS011;45801;51.810;19.444;2022-07-06T14:53:06;4.40;;;1.00;;
59938;SDS011;45801;51.810;19.444;2022-07-06T14:55:33;4.40;;;1.10;;
59938;SDS011;45801;51.810;19.444;2022-07-06T14:57:59;2.40;;;1.00;;
59938;SDS011;45801;51.810;19.444;2022-07-06T15:00:26;5.00;;;1.40;;